createdAt,value
2022-08-26T05:04:33.953Z,18.20
2022-08-26T05:07:03.376Z,13.40
2022-08-26T05:09:32.167Z,17.30
2022-08-26T05:12:00.966Z,18.10
2022-08-26T05:14:29.885Z,20.20
2022-08-26T05:16:59.161Z,22.90
2022-08-26T05:19:28.055Z,17.00
2022-08-26T05:21:56.941Z,16.00
2022-08-26T05:24:25.849Z,19.80
2022-08-26T05:26:56.447Z,10.60
2022-08-26T05:29:25.450Z,14.00
2022-08-26T05:31:55.956Z,19.50
2022-08-26T05:34:25.731Z,13.80
2022-08-26T05:36:59.792Z,15.50
2022-08-26T05:39:28.815Z,16.70
2022-08-26T05:41:57.494Z,23.40
2022-08-26T05:44:26.279Z,20.00
2022-08-26T05:46:54.967Z,15.30
2022-08-26T05:49:26.410Z,11.20
2022-08-26T05:51:55.737Z,8.50
2022-08-26T05:54:24.615Z,10.50
2022-08-26T05:56:53.513Z,10.70
2022-08-26T05:59:24.654Z,9.30
2022-08-26T06:01:57.483Z,9.20
2022-08-26T06:04:29.148Z,8.50
2022-08-26T06:06:59.627Z,9.20
2022-08-26T06:09:28.442Z,8.00
2022-08-26T06:11:59.369Z,12.60
2022-08-26T06:14:28.129Z,10.20
2022-08-26T06:16:58.047Z,10.90
2022-08-26T06:19:32.651Z,10.70
2022-08-26T06:22:23.275Z,9.90
2022-08-26T06:25:11.118Z,10.80
2022-08-26T06:27:39.767Z,9.50
2022-08-26T06:30:10.119Z,11.20
2022-08-26T06:32:39.123Z,12.60
2022-08-26T06:35:12.239Z,10.80
2022-08-26T06:37:41.508Z,9.80
2022-08-26T06:40:11.444Z,12.60
2022-08-26T06:42:40.426Z,12.20
2022-08-26T06:45:09.587Z,7.80
2022-08-26T06:47:39.869Z,14.40
2022-08-26T06:50:09.075Z,10.00
2022-08-26T06:52:37.928Z,10.80
2022-08-26T06:55:07.554Z,10.60
2022-08-26T06:57:37.690Z,8.90
2022-08-26T07:00:10.965Z,13.10
2022-08-26T07:02:39.845Z,12.10
2022-08-26T07:05:09.402Z,10.30
2022-08-26T07:07:38.619Z,11.30
2022-08-26T07:10:08.945Z,8.70
2022-08-26T07:12:37.527Z,15.60
2022-08-26T07:15:07.474Z,9.40
2022-08-26T07:17:37.066Z,8.20
2022-08-26T07:20:10.180Z,10.90
2022-08-26T07:22:39.781Z,13.90
2022-08-26T07:25:11.761Z,10.70
2022-08-26T07:27:41.162Z,11.10
2022-08-26T07:30:10.760Z,11.50
2022-08-26T07:32:43.759Z,9.60
2022-08-26T07:35:12.376Z,9.30
2022-08-26T07:37:41.101Z,14.70
2022-08-26T07:40:10.435Z,12.60
2022-08-26T07:42:39.992Z,13.70
2022-08-26T07:45:09.276Z,17.40
2022-08-26T07:47:38.026Z,11.90
2022-08-26T07:50:07.180Z,9.10
2022-08-26T07:52:37.904Z,11.00
2022-08-26T07:55:10.153Z,11.80
2022-08-26T07:57:39.973Z,11.60
2022-08-26T08:00:13.151Z,11.60
2022-08-26T08:02:47.089Z,13.10
2022-08-26T08:05:18.920Z,15.40
2022-08-26T08:07:48.927Z,9.30
2022-08-26T08:10:26.685Z,12.10
2022-08-26T08:12:57.764Z,9.40
2022-08-26T08:15:31.401Z,10.90
2022-08-26T08:18:01.091Z,10.70
2022-08-26T08:20:30.787Z,12.60
2022-08-26T08:23:02.166Z,10.50
2022-08-26T08:25:32.707Z,12.20
2022-08-26T08:28:01.442Z,10.70
2022-08-26T13:02:37.969Z,33.00
2022-08-26T13:05:07.464Z,41.20
2022-08-26T13:07:36.754Z,40.80
2022-08-26T13:10:06.092Z,43.40
2022-08-26T13:12:37.637Z,37.80
2022-08-26T13:15:07.942Z,43.60
2022-08-26T13:17:36.929Z,37.20
2022-08-26T13:20:06.516Z,38.10
2022-08-26T13:22:35.251Z,54.60
2022-08-26T13:25:04.612Z,58.50
2022-08-26T13:27:33.439Z,63.40
2022-08-26T13:30:02.429Z,54.90
2022-08-26T13:32:32.978Z,66.70
2022-08-26T13:35:05.572Z,61.70
2022-08-26T13:37:35.624Z,65.00
2022-08-26T13:40:07.472Z,56.60
2022-08-26T13:42:36.337Z,54.80
2022-08-26T13:45:06.357Z,58.10
2022-08-26T13:47:35.061Z,55.20
2022-08-26T13:50:05.862Z,52.50
2022-08-26T13:52:34.698Z,45.20
2022-08-26T13:55:04.057Z,51.10
2022-08-26T13:57:32.976Z,58.70
2022-08-26T14:00:01.585Z,50.70
2022-08-26T14:02:38.286Z,44.70
2022-08-26T14:05:08.580Z,59.70
2022-08-26T14:07:37.401Z,53.10
2022-08-26T14:10:07.511Z,53.40
2022-08-26T14:12:36.129Z,56.30
2022-08-26T14:15:05.358Z,63.80
2022-08-26T14:17:34.115Z,54.30
2022-08-26T14:20:04.876Z,66.10
2022-08-26T14:22:34.340Z,62.40
2022-08-26T14:25:03.126Z,75.20
2022-08-26T14:27:31.689Z,61.60
2022-08-26T14:30:00.392Z,66.10
2022-08-26T14:32:30.091Z,70.50
2022-08-26T14:34:58.902Z,65.00
2022-08-26T14:37:27.984Z,63.30
2022-08-26T14:39:57.230Z,74.60
2022-08-26T14:42:31.428Z,77.10
2022-08-26T14:45:04.406Z,68.70
2022-08-26T14:47:33.041Z,58.00
2022-08-26T14:50:01.961Z,59.00
2022-08-26T14:52:50.631Z,75.90
2022-08-26T14:55:19.441Z,74.10
2022-08-26T14:57:48.911Z,59.70
2022-08-26T15:00:19.136Z,61.50
2022-08-26T15:02:48.064Z,66.10
2022-08-26T15:05:17.006Z,73.20
2022-08-26T15:07:46.177Z,59.40
2022-08-26T15:10:17.167Z,64.00
2022-08-26T15:12:47.082Z,76.70
2022-08-26T15:15:18.716Z,54.70
2022-08-26T15:17:48.037Z,69.40
2022-08-26T15:20:18.287Z,57.50
2022-08-26T15:22:47.657Z,72.90
2022-08-26T15:25:17.660Z,72.50
2022-08-26T15:27:46.501Z,59.60
2022-08-26T15:30:16.977Z,65.70
2022-08-26T15:32:45.999Z,71.70
2022-08-26T15:35:15.090Z,61.20
2022-08-26T15:37:43.897Z,66.00
2022-08-26T15:40:12.881Z,62.70
2022-08-26T15:42:41.690Z,75.10
2022-08-26T15:45:11.356Z,56.40
2022-08-26T15:48:10.888Z,74.60
2022-08-26T15:50:54.008Z,67.90
2022-08-26T15:53:24.520Z,63.60
2022-08-26T15:55:58.061Z,57.70
2022-08-26T15:58:29.246Z,66.40
2022-08-26T16:00:58.172Z,72.70
2022-08-26T16:03:26.948Z,73.10
2022-08-26T16:05:55.726Z,72.00
2022-08-26T16:08:24.861Z,62.70
2022-08-26T16:10:58.040Z,62.70
2022-08-26T16:13:26.938Z,62.60
2022-08-26T16:16:08.757Z,65.80
2022-08-26T16:18:37.932Z,61.00
2022-08-26T16:21:13.880Z,59.50
2022-08-26T16:23:45.331Z,57.00
2022-08-26T16:26:22.826Z,54.80
2022-08-26T16:28:53.293Z,70.00
2022-08-26T16:31:23.006Z,65.70
2022-08-26T16:33:52.160Z,60.40
2022-08-26T16:36:20.935Z,75.90
2022-08-26T16:38:56.577Z,64.30
2022-08-26T16:41:29.721Z,77.40
2022-08-26T16:43:59.306Z,62.60
2022-08-26T16:46:29.395Z,55.40
2022-08-26T16:48:59.329Z,58.00
2022-08-26T16:51:28.690Z,78.60
2022-08-26T16:53:59.167Z,66.60
2022-08-26T16:56:34.115Z,62.60
2022-08-26T16:59:06.049Z,62.60
2022-08-26T17:01:35.105Z,65.00
2022-08-26T17:04:04.709Z,58.80
2022-08-26T17:06:34.497Z,67.70
2022-08-26T17:09:03.581Z,57.10
2022-08-26T17:11:32.310Z,75.20
2022-08-26T17:14:01.554Z,56.80
2022-08-26T17:16:30.573Z,65.40
2022-08-26T17:19:00.738Z,74.70
2022-08-26T17:21:29.876Z,72.40
2022-08-26T17:23:58.649Z,55.80
2022-08-26T17:26:28.369Z,69.70
2022-08-26T17:28:57.144Z,64.10
2022-08-26T17:31:27.158Z,79.00
2022-08-26T17:33:56.187Z,64.70
2022-08-26T17:36:27.850Z,62.70
2022-08-26T17:38:58.997Z,64.40
2022-08-26T17:41:27.942Z,71.30
2022-08-26T17:43:56.678Z,63.10
2022-08-26T17:46:25.587Z,62.50
2022-08-26T17:48:55.461Z,61.10
2022-08-26T17:51:24.322Z,67.10
2022-08-26T17:53:53.483Z,54.00
2022-08-26T17:56:27.602Z,59.30
2022-08-26T17:59:02.347Z,48.90
2022-08-26T18:01:33.199Z,58.10
2022-08-26T18:04:03.938Z,64.30
2022-08-26T18:06:33.438Z,49.30
2022-08-26T18:09:02.258Z,57.60
2022-08-26T18:11:31.514Z,62.90
2022-08-26T18:14:00.597Z,55.40
2022-08-26T18:16:32.010Z,53.50
2022-08-26T18:19:01.521Z,49.70
2022-08-26T18:21:30.414Z,51.60
2022-08-26T18:23:59.722Z,52.30
2022-08-26T18:26:36.273Z,50.90
2022-08-26T18:29:07.379Z,53.40
2022-08-26T18:31:36.202Z,61.70
2022-08-26T18:34:06.158Z,49.00
2022-08-26T18:36:37.507Z,49.30
2022-08-26T18:39:08.895Z,51.90
2022-08-26T18:41:49.420Z,60.00
2022-08-26T18:44:21.661Z,52.20
2022-08-26T18:46:52.134Z,42.90
2022-08-26T18:49:22.369Z,45.90
2022-08-26T18:51:52.663Z,54.50
2022-08-26T18:54:22.108Z,43.70
2022-08-26T18:56:50.962Z,46.90
2022-08-26T18:59:19.890Z,48.50
2022-08-26T19:01:59.709Z,56.00
2022-08-26T19:04:28.625Z,50.80
2022-08-26T19:06:57.295Z,45.20
2022-08-26T19:09:27.305Z,54.80
2022-08-26T19:14:31.411Z,42.30
2022-08-26T19:17:00.706Z,44.20
2022-08-26T19:19:29.892Z,49.30
2022-08-26T19:21:58.643Z,50.20
2022-08-26T19:24:28.359Z,50.30
2022-08-26T19:27:01.552Z,52.80
2022-08-26T19:29:35.858Z,56.80
2022-08-26T19:32:05.149Z,54.90
2022-08-26T19:34:34.579Z,50.70
2022-08-26T19:37:03.307Z,62.30
2022-08-26T19:39:31.892Z,50.70
2022-08-26T19:42:00.662Z,66.00
2022-08-26T19:44:48.042Z,54.60
2022-08-26T19:47:16.921Z,54.70
2022-08-26T19:49:46.122Z,45.20
2022-08-26T19:52:14.833Z,55.30
2022-08-26T19:54:44.640Z,49.20
2022-08-26T19:57:13.476Z,52.40
2022-08-26T19:59:42.665Z,52.70
2022-08-26T20:02:11.626Z,39.10
2022-08-26T20:04:41.847Z,48.80
2022-08-26T20:07:13.035Z,54.90
2022-08-26T20:09:46.463Z,57.60
2022-08-26T20:12:16.120Z,48.90
2022-08-26T20:14:45.714Z,45.00
2022-08-26T20:17:16.240Z,42.70
2022-08-26T20:20:03.233Z,58.80
2022-08-26T20:22:33.121Z,60.00
2022-08-26T20:25:02.398Z,52.20
2022-08-26T20:27:37.789Z,42.70
2022-08-26T20:30:10.403Z,52.00
2022-08-26T20:32:40.233Z,42.70
2022-08-26T20:35:13.232Z,42.20
2022-08-26T20:37:42.492Z,54.50
2022-08-26T20:40:14.087Z,42.60
2022-08-26T20:42:43.017Z,54.30
2022-08-26T20:45:12.149Z,54.50
2022-08-26T20:47:43.944Z,52.90
2022-08-26T20:50:12.693Z,52.00
2022-08-26T20:52:41.391Z,59.50
2022-08-26T20:55:10.588Z,37.40
2022-08-26T20:57:39.404Z,59.10
2022-08-26T21:00:09.888Z,49.50
2022-08-26T21:02:38.640Z,38.80
2022-08-26T21:05:08.704Z,49.10
2022-08-26T21:07:37.539Z,48.00
2022-08-26T21:10:07.294Z,43.70
2022-08-26T21:12:36.173Z,52.40
2022-08-26T21:15:06.894Z,49.70
2022-08-26T21:17:35.562Z,46.70
2022-08-26T21:20:04.945Z,57.60
2022-08-26T21:22:34.747Z,45.20
2022-08-26T21:25:04.248Z,35.50
2022-08-26T21:27:35.245Z,38.40
2022-08-26T21:30:05.030Z,46.40
2022-08-26T21:32:33.747Z,42.30
2022-08-26T21:35:02.610Z,45.60
2022-08-26T21:37:31.638Z,33.00
2022-08-26T21:40:05.603Z,37.80
2022-08-26T21:42:35.932Z,38.90
2022-08-26T21:45:06.612Z,34.10
2022-08-26T21:47:35.365Z,49.60
2022-08-26T21:50:05.963Z,30.80
2022-08-26T21:52:35.093Z,27.50
2022-08-26T21:55:09.050Z,42.80
2022-08-26T21:57:38.420Z,41.30
2022-08-26T22:00:10.333Z,45.10
2022-08-26T22:02:39.449Z,36.50
2022-08-26T22:05:08.917Z,40.70
2022-08-26T22:07:37.878Z,33.50
2022-08-26T22:10:08.363Z,35.30
2022-08-26T22:12:37.406Z,32.90
2022-08-26T22:15:07.499Z,33.40
2022-08-26T22:17:36.416Z,33.00
2022-08-26T22:20:07.753Z,29.60
2022-08-26T22:22:46.187Z,25.70
2022-08-26T22:25:14.866Z,30.00
2022-08-26T22:27:43.741Z,35.70
2022-08-26T22:30:13.667Z,26.20
2022-08-26T22:32:45.056Z,31.50
2022-08-26T22:35:16.693Z,40.00
2022-08-26T22:37:59.526Z,28.40
2022-08-26T22:40:28.747Z,25.10
2022-08-26T22:42:59.978Z,30.00
2022-08-26T22:45:33.253Z,36.20
2022-08-26T22:50:34.000Z,20.80
2022-08-26T22:53:03.172Z,26.00
2022-08-26T22:55:32.082Z,26.10
2022-08-26T22:58:01.073Z,32.10
2022-08-26T23:00:32.299Z,32.60
2022-08-26T23:03:02.832Z,26.90
2022-08-26T23:05:32.741Z,21.10
2022-08-26T23:08:02.655Z,30.20
2022-08-26T23:10:33.271Z,37.10
2022-08-26T23:13:04.161Z,19.20
2022-08-26T23:15:33.147Z,26.50
2022-08-26T23:18:02.887Z,21.50
2022-08-26T23:20:32.857Z,25.30
2022-08-26T23:23:02.267Z,29.70
2022-08-26T23:25:32.810Z,25.80
2022-08-26T23:28:02.693Z,34.90
2022-08-26T23:30:34.620Z,25.00
2022-08-26T23:33:03.580Z,25.70
2022-08-26T23:35:32.575Z,24.10
2022-08-26T23:38:02.163Z,25.50
2022-08-26T23:40:37.164Z,29.20
2022-08-26T23:43:09.786Z,26.10
2022-08-26T23:45:39.577Z,20.80
2022-08-26T23:48:08.879Z,28.20
2022-08-26T23:50:56.335Z,29.20
2022-08-26T23:53:25.229Z,24.30
2022-08-26T23:55:54.532Z,24.80
2022-08-26T23:58:23.626Z,22.40
